METAR AND TAF INFORMATION
METAR FOR SGAS
ADDS - METARS form results

(1614 UTC 18 January 2021)
Data provider http://aviationweather.gov/metar/data/
 
METAR text: SGAS 181600Z 16011KT 9999 FEW040 28/17 Q1013
Conditions at: SGAS (ASUNCION/SILVIO , PY) observed 1600 UTC 18 January 2021
Temperature: 28.0°C (82°F)
Dewpoint: 17.0°C (63°F) [RH = 51%]
Pressure (altimeter): 29.91 inches Hg (1013.0 mb)
Winds: from the SSE (160 degrees) at 13 MPH (11 knots; 5.7 m/s)
Visibility: 6 or more miles (10+ km)
Ceiling: at least 12,000 feet AGL
Clouds: few clouds at 4000 feet AGL
Weather: no significant weather observed at this time

Forecast for: SGAS (ASUNCION/SILVIO , PY)
Text: TAF SGAS 180935Z 1812/1912 21010KT CAVOK TX29/1818Z TN18/1909Z
Forecast period: 1200 UTC 18 January 2021 to 1200 UTC 19 January 2021
Forecast type: FROM: standard forecast or significant change
Winds: from the SSW (210 degrees) at 12 MPH (10 knots; 5.1 m/s)
Visibility: 6 or more miles (10+ km)
Ceiling: unknown
Clouds: missing
Weather: no significant weather forecast for this period

 AIRPORT MAP

 RUNWAY INFORMATION

 AIRPORT FREQUENCIES
Type APP Name ASUNCION A Frequency 119.7 MHZ
Type CTR Name ASUNCION C Frequency 128.4 MHZ
Type GND Name GND Frequency 121.9 MHZ
Type RDO Name ASUNCION R Frequency 126.9 MHZ
Type RDO Name ASUNCION R Frequency 1002.4 MHZ
Type TWR Name ASUNCION T Frequency 118.1 MHZ

 AIRPORT NEAR NAVIGATION AIDS